Depoe Bay, OR

1:36 AM PDT on April 30, 2017 (GMT -0700)
StoneBridge | | Change Station

Elev 115 ft 44.81 °N, 124.05 °W | Updated 4 seconds ago

Rain
Rain
50.2 °F
Feels Like 50.2 °F
N
0.9
Wind Variable Wind from WSW
Gusts 2.5 mph

Today
High -- | Low -- °F
--% Chance of Precip.
Yesterday
High -- | Low -- °F
Precip. -- in
Pressure 30.26 in
Visibility 3.0 miles
Clouds Overcast 400 ft
Dew Point 49 °F
Humidity 95%
Rainfall 0.11 in
Snow Depth Not available.
6:06 AM 8:20 PM
Waxing Crescent, 21% visible
METAR KONP 300815Z AUTO 20015KT 3SM DZ OVC004 10/09 A3026 RMK AO2 P0001
Pressure 30.26 in
Visibility 3.0 miles
Clouds Overcast 400 ft
Dew Point 49 °F
Humidity 95%
Rainfall 0.11 in
Snow Depth Not available.
6:06 AM 8:20 PM
Waxing Crescent, 21% visible
METAR KONP 300815Z AUTO 20015KT 3SM DZ OVC004 10/09 A3026 RMK AO2 P0001

Get Severe Weather Alerts

Thanks for signing up!

Be on the lookout for a verification email in your inbox.

You'll start receiving the daily forecast at 8 AM.

×

10-Day Weather Forecast

Almanac

Astronomy

Apr. 30, 2017 Rise Set
Actual Time
Civil Twilight
Nautical Twilight
Astronomical Twilight
Moon
Length of Visible Light
Length of Day
Tomorrow will be .
, % of the Moon is Illuminated

Today's Extremes

State Highs State Lows

Community

WunderPhotos

WunderBlog® & News

Nearby

Air Quality

  Air Quality AQ Index Pollutant
Not available.

Snow Depth

Station Depth Elevation

Earthquake Activity

City Distance Mag. Time & Date
Minimum magnitude displayed is 2.5.

Coastal Water Temperatures

Place Temperature

Stations

Nearby Weather Stations

Station Location Temp. Windchill Dew Point Humidity Wind Precip. Elev Updated Type
                   

Watches & Warnings

There are currently no watches in effect.